createdAt,value
2018-07-19T00:00:51.515Z,2.20
2018-07-19T00:10:54.474Z,2.30
2018-07-19T00:20:58.248Z,2.30
2018-07-19T00:31:01.326Z,2.20
2018-07-19T00:41:04.314Z,1.90
2018-07-19T00:51:07.638Z,1.70
2018-07-19T01:01:10.761Z,1.98
2018-07-19T01:11:13.893Z,1.90
2018-07-19T01:21:17.019Z,1.80
2018-07-19T01:31:20.841Z,1.75
2018-07-19T01:41:41.429Z,1.37
2018-07-19T01:51:44.479Z,1.70
2018-07-19T02:01:47.613Z,1.72
2018-07-19T02:11:50.770Z,1.85
2018-07-19T02:21:53.886Z,1.40
2018-07-19T02:31:56.866Z,1.85
2018-07-19T02:41:59.949Z,1.50
2018-07-19T02:52:02.970Z,1.90
2018-07-19T03:02:05.983Z,1.55
2018-07-19T03:12:09.017Z,1.27
2018-07-19T03:22:12.159Z,1.77
2018-07-19T03:32:15.250Z,1.70
2018-07-19T03:42:18.205Z,1.80
2018-07-19T03:52:21.362Z,1.55
2018-07-19T04:02:24.301Z,1.77
2018-07-19T04:12:27.446Z,2.02
2018-07-19T04:22:31.141Z,2.35
2018-07-19T04:32:34.189Z,1.60
2018-07-19T04:42:37.225Z,1.72
2018-07-19T04:52:40.206Z,1.62
2018-07-19T05:02:43.355Z,1.90
2018-07-19T05:12:46.502Z,1.60
2018-07-19T05:22:49.577Z,1.75
2018-07-19T05:32:53.236Z,1.95
2018-07-19T05:42:56.334Z,1.95
2018-07-19T05:52:59.413Z,1.90
2018-07-19T06:03:02.358Z,1.95
2018-07-19T06:13:05.590Z,2.15
2018-07-19T06:23:08.621Z,2.22
2018-07-19T06:33:11.609Z,2.77
2018-07-19T06:43:14.697Z,2.30
2018-07-19T06:53:17.689Z,2.50
2018-07-19T07:03:20.658Z,2.80
2018-07-19T07:13:23.718Z,2.65
2018-07-19T07:23:26.685Z,2.87
2018-07-19T07:33:29.813Z,2.80
2018-07-19T07:43:39.628Z,3.00
2018-07-19T07:53:42.628Z,3.10
2018-07-19T08:03:45.777Z,3.45
2018-07-19T08:13:48.905Z,2.67
2018-07-19T08:23:52.091Z,3.65
2018-07-19T08:33:55.185Z,3.80
2018-07-19T08:43:58.361Z,3.83
2018-07-19T08:54:01.555Z,4.62
2018-07-19T09:04:04.609Z,4.50
2018-07-19T09:14:07.825Z,4.25
2018-07-19T09:24:10.930Z,5.03
2018-07-19T09:34:14.362Z,5.08
2018-07-19T09:44:17.401Z,5.20
2018-07-19T09:54:31.914Z,4.80
2018-07-19T10:04:34.913Z,4.67
2018-07-19T10:14:38.067Z,5.00
2018-07-19T10:24:41.208Z,3.95
2018-07-19T10:34:44.192Z,3.72
2018-07-19T10:44:47.281Z,3.80
2018-07-19T10:54:50.404Z,3.40
2018-07-19T11:04:53.335Z,3.67
2018-07-19T11:14:56.375Z,3.33
2018-07-19T11:24:59.434Z,3.58
2018-07-19T11:35:02.618Z,3.80
2018-07-19T11:45:05.942Z,4.08
2018-07-19T11:55:09.026Z,3.70
2018-07-19T12:05:12.039Z,3.85
2018-07-19T12:15:15.103Z,3.92
2018-07-19T12:25:18.117Z,4.40
2018-07-19T12:35:21.169Z,3.70
2018-07-19T12:45:24.219Z,3.72
2018-07-19T12:55:27.281Z,3.85
2018-07-19T13:05:30.929Z,3.77
2018-07-19T13:15:34.057Z,3.77
2018-07-19T13:25:37.089Z,5.78
2018-07-19T13:35:40.374Z,4.90
2018-07-19T13:45:43.374Z,4.60
2018-07-19T13:55:46.333Z,4.40
2018-07-19T14:05:49.439Z,4.70
2018-07-19T14:15:53.047Z,4.72
2018-07-19T14:25:56.134Z,4.60
2018-07-19T14:35:59.887Z,4.22
2018-07-19T14:46:02.845Z,4.42
2018-07-19T14:56:06.118Z,4.00
2018-07-19T15:06:09.107Z,3.95
2018-07-19T15:16:12.081Z,3.80
2018-07-19T15:26:15.232Z,4.40
2018-07-19T15:36:18.310Z,4.30
2018-07-19T15:46:21.290Z,4.40
2018-07-19T15:56:24.377Z,4.47
2018-07-19T16:06:27.385Z,3.80
2018-07-19T16:16:30.319Z,3.92
2018-07-19T16:26:33.283Z,3.85
2018-07-19T16:36:36.241Z,3.77
2018-07-19T16:46:39.213Z,3.72
2018-07-19T16:56:42.181Z,3.45
2018-07-19T17:06:45.270Z,3.30
2018-07-19T17:16:48.241Z,3.40
2018-07-19T17:26:51.222Z,3.80
2018-07-19T17:36:54.737Z,3.33
2018-07-19T17:46:57.689Z,3.67
2018-07-19T17:57:00.689Z,3.27
2018-07-19T18:07:03.671Z,3.15
2018-07-19T18:17:06.697Z,3.65
2018-07-19T18:27:09.669Z,3.80
2018-07-19T18:37:12.618Z,4.20
2018-07-19T18:47:15.718Z,3.42
2018-07-19T18:57:18.699Z,3.30
2018-07-19T19:07:21.671Z,3.98
2018-07-19T19:17:24.622Z,3.47
2018-07-19T19:27:27.597Z,4.33
2018-07-19T19:37:30.585Z,3.80
2018-07-19T19:47:33.537Z,3.75
2018-07-19T19:57:36.540Z,3.77
2018-07-19T20:07:39.526Z,4.25
2018-07-19T20:17:42.486Z,4.40
2018-07-19T20:27:45.486Z,4.45
2018-07-19T20:37:48.462Z,4.42
2018-07-19T20:47:51.563Z,5.08
2018-07-19T20:57:55.033Z,4.62
2018-07-19T21:07:58.069Z,4.80
2018-07-19T21:18:01.468Z,4.78
2018-07-19T21:28:04.545Z,4.42
2018-07-19T21:38:07.796Z,4.72
2018-07-19T21:48:10.831Z,5.12
2018-07-19T21:58:13.954Z,4.75
2018-07-19T22:08:18.212Z,5.20
2018-07-19T22:18:21.294Z,4.97
2018-07-19T22:28:24.488Z,5.05
2018-07-19T22:38:27.564Z,5.47
2018-07-19T22:48:30.567Z,4.78
2018-07-19T22:58:33.620Z,5.47
2018-07-19T23:08:36.724Z,5.03
2018-07-19T23:18:39.689Z,5.47
2018-07-19T23:28:42.842Z,5.45
2018-07-19T23:38:51.159Z,5.42
2018-07-19T23:48:55.429Z,5.35
2018-07-19T23:58:58.675Z,5.22
